sensor_id;sensor_type;location;lat;lon;timestamp;P1;durP1;ratioP1;P2;durP2;ratioP2
14789;SDS011;7486;51.010;10.366;2023-05-07T00:02:10;47.70;;;35.33;;
14789;SDS011;7486;51.010;10.366;2023-05-07T00:04:55;46.57;;;35.07;;
14789;SDS011;7486;51.010;10.366;2023-05-07T00:07:41;48.40;;;36.33;;
14789;SDS011;7486;51.010;10.366;2023-05-07T00:10:26;49.00;;;35.53;;
14789;SDS011;7486;51.010;10.366;2023-05-07T00:13:12;46.17;;;35.13;;
14789;SDS011;7486;51.010;10.366;2023-05-07T00:15:58;48.23;;;36.10;;
14789;SDS011;7486;51.010;10.366;2023-05-07T00:18:43;48.23;;;35.30;;
14789;SDS011;7486;51.010;10.366;2023-05-07T00:21:29;46.27;;;35.10;;
14789;SDS011;7486;51.010;10.366;2023-05-07T00:24:14;48.23;;;35.17;;
14789;SDS011;7486;51.010;10.366;2023-05-07T00:27:00;46.97;;;35.15;;
14789;SDS011;7486;51.010;10.366;2023-05-07T00:29:45;46.37;;;35.50;;
14789;SDS011;7486;51.010;10.366;2023-05-07T00:32:31;48.93;;;34.53;;
14789;SDS011;7486;51.010;10.366;2023-05-07T00:35:16;49.53;;;34.23;;
14789;SDS011;7486;51.010;10.366;2023-05-07T00:38:02;45.25;;;33.20;;
14789;SDS011;7486;51.010;10.366;2023-05-07T00:40:47;43.53;;;32.80;;
14789;SDS011;7486;51.010;10.366;2023-05-07T00:43:32;43.22;;;33.10;;
14789;SDS011;7486;51.010;10.366;2023-05-07T00:46:19;45.75;;;33.47;;
14789;SDS011;7486;51.010;10.366;2023-05-07T00:49:05;44.42;;;33.78;;
14789;SDS011;7486;51.010;10.366;2023-05-07T00:51:51;45.25;;;33.85;;
14789;SDS011;7486;51.010;10.366;2023-05-07T00:54:37;45.77;;;33.50;;
14789;SDS011;7486;51.010;10.366;2023-05-07T00:57:23;47.40;;;34.17;;
14789;SDS011;7486;51.010;10.366;2023-05-07T01:00:09;45.80;;;34.07;;
14789;SDS011;7486;51.010;10.366;2023-05-07T01:02:55;47.60;;;34.87;;
14789;SDS011;7486;51.010;10.366;2023-05-07T01:05:41;47.37;;;34.33;;
14789;SDS011;7486;51.010;10.366;2023-05-07T01:08:28;51.50;;;35.90;;
14789;SDS011;7486;51.010;10.366;2023-05-07T01:11:15;49.60;;;33.83;;
14789;SDS011;7486;51.010;10.366;2023-05-07T01:14:03;45.80;;;34.20;;
14789;SDS011;7486;51.010;10.366;2023-05-07T01:16:49;51.53;;;35.40;;
14789;SDS011;7486;51.010;10.366;2023-05-07T01:19:36;47.90;;;34.03;;
14789;SDS011;7486;51.010;10.366;2023-05-07T01:22:32;50.40;;;33.50;;
14789;SDS011;7486;51.010;10.366;2023-05-07T01:25:19;48.77;;;33.97;;
14789;SDS011;7486;51.010;10.366;2023-05-07T01:28:08;47.47;;;34.50;;
14789;SDS011;7486;51.010;10.366;2023-05-07T01:30:56;46.50;;;33.47;;
14789;SDS011;7486;51.010;10.366;2023-05-07T01:33:45;45.23;;;34.47;;
14789;SDS011;7486;51.010;10.366;2023-05-07T01:36:34;46.70;;;35.67;;
14789;SDS011;7486;51.010;10.366;2023-05-07T01:39:24;48.87;;;35.03;;
14789;SDS011;7486;51.010;10.366;2023-05-07T01:42:10;47.60;;;34.87;;
14789;SDS011;7486;51.010;10.366;2023-05-07T01:44:56;52.10;;;35.33;;
14789;SDS011;7486;51.010;10.366;2023-05-07T01:47:42;43.93;;;33.60;;
14789;SDS011;7486;51.010;10.366;2023-05-07T01:50:29;48.42;;;33.78;;
14789;SDS011;7486;51.010;10.366;2023-05-07T01:53:16;49.63;;;33.97;;
14789;SDS011;7486;51.010;10.366;2023-05-07T01:56:02;48.60;;;34.40;;
14789;SDS011;7486;51.010;10.366;2023-05-07T01:58:48;44.33;;;34.20;;
14789;SDS011;7486;51.010;10.366;2023-05-07T02:01:34;50.63;;;35.27;;
14789;SDS011;7486;51.010;10.366;2023-05-07T02:04:20;48.50;;;34.50;;
14789;SDS011;7486;51.010;10.366;2023-05-07T02:07:05;48.77;;;33.73;;
14789;SDS011;7486;51.010;10.366;2023-05-07T02:09:51;48.70;;;34.63;;
14789;SDS011;7486;51.010;10.366;2023-05-07T02:12:37;47.33;;;33.73;;
14789;SDS011;7486;51.010;10.366;2023-05-07T02:15:22;43.27;;;31.33;;
14789;SDS011;7486;51.010;10.366;2023-05-07T02:18:09;47.73;;;32.03;;
14789;SDS011;7486;51.010;10.366;2023-05-07T02:20:55;39.67;;;30.00;;
14789;SDS011;7486;51.010;10.366;2023-05-07T02:23:40;44.37;;;30.90;;
14789;SDS011;7486;51.010;10.366;2023-05-07T02:26:26;45.73;;;31.50;;
14789;SDS011;7486;51.010;10.366;2023-05-07T02:29:11;41.43;;;29.27;;
14789;SDS011;7486;51.010;10.366;2023-05-07T02:31:58;43.27;;;30.27;;
14789;SDS011;7486;51.010;10.366;2023-05-07T02:34:43;46.57;;;30.30;;
14789;SDS011;7486;51.010;10.366;2023-05-07T02:37:28;44.27;;;30.27;;
14789;SDS011;7486;51.010;10.366;2023-05-07T02:40:14;48.63;;;29.50;;
14789;SDS011;7486;51.010;10.366;2023-05-07T02:42:59;46.60;;;29.77;;
14789;SDS011;7486;51.010;10.366;2023-05-07T02:45:45;48.83;;;29.90;;
14789;SDS011;7486;51.010;10.366;2023-05-07T02:48:31;46.03;;;28.80;;
14789;SDS011;7486;51.010;10.366;2023-05-07T02:51:20;43.77;;;28.23;;
14789;SDS011;7486;51.010;10.366;2023-05-07T02:54:09;45.33;;;29.07;;
14789;SDS011;7486;51.010;10.366;2023-05-07T02:56:54;44.03;;;28.07;;
14789;SDS011;7486;51.010;10.366;2023-05-07T02:59:40;44.50;;;28.70;;
14789;SDS011;7486;51.010;10.366;2023-05-07T03:02:26;44.77;;;28.57;;
14789;SDS011;7486;51.010;10.366;2023-05-07T03:05:11;43.70;;;27.77;;
14789;SDS011;7486;51.010;10.366;2023-05-07T03:07:57;44.90;;;29.37;;
14789;SDS011;7486;51.010;10.366;2023-05-07T03:10:42;46.00;;;28.43;;
14789;SDS011;7486;51.010;10.366;2023-05-07T03:13:28;46.20;;;28.53;;
14789;SDS011;7486;51.010;10.366;2023-05-07T03:16:13;45.67;;;28.30;;
14789;SDS011;7486;51.010;10.366;2023-05-07T03:18:59;50.67;;;28.70;;
14789;SDS011;7486;51.010;10.366;2023-05-07T03:21:46;45.93;;;27.40;;
14789;SDS011;7486;51.010;10.366;2023-05-07T03:24:32;42.63;;;27.90;;
14789;SDS011;7486;51.010;10.366;2023-05-07T03:27:17;45.93;;;28.37;;
14789;SDS011;7486;51.010;10.366;2023-05-07T03:30:03;47.80;;;27.57;;
14789;SDS011;7486;51.010;10.366;2023-05-07T03:32:49;42.83;;;27.33;;
14789;SDS011;7486;51.010;10.366;2023-05-07T03:35:34;42.07;;;26.10;;
14789;SDS011;7486;51.010;10.366;2023-05-07T03:38:20;42.87;;;26.17;;
14789;SDS011;7486;51.010;10.366;2023-05-07T03:41:05;41.27;;;25.87;;
14789;SDS011;7486;51.010;10.366;2023-05-07T03:43:51;38.43;;;25.43;;
14789;SDS011;7486;51.010;10.366;2023-05-07T03:46:36;42.47;;;26.17;;
14789;SDS011;7486;51.010;10.366;2023-05-07T03:49:22;42.13;;;26.37;;
14789;SDS011;7486;51.010;10.366;2023-05-07T03:52:07;41.60;;;25.30;;
14789;SDS011;7486;51.010;10.366;2023-05-07T03:54:53;38.77;;;25.00;;
14789;SDS011;7486;51.010;10.366;2023-05-07T03:57:39;40.63;;;25.50;;
14789;SDS011;7486;51.010;10.366;2023-05-07T04:00:24;41.33;;;24.43;;
14789;SDS011;7486;51.010;10.366;2023-05-07T04:03:09;38.20;;;24.27;;
14789;SDS011;7486;51.010;10.366;2023-05-07T04:05:55;39.63;;;24.50;;
14789;SDS011;7486;51.010;10.366;2023-05-07T04:08:41;38.57;;;23.80;;
14789;SDS011;7486;51.010;10.366;2023-05-07T04:11:26;39.53;;;23.47;;
14789;SDS011;7486;51.010;10.366;2023-05-07T04:14:12;37.33;;;23.43;;
14789;SDS011;7486;51.010;10.366;2023-05-07T04:16:58;41.30;;;22.93;;
14789;SDS011;7486;51.010;10.366;2023-05-07T04:19:44;36.30;;;23.70;;
14789;SDS011;7486;51.010;10.366;2023-05-07T04:22:29;36.27;;;23.17;;
14789;SDS011;7486;51.010;10.366;2023-05-07T04:25:16;38.93;;;22.93;;
14789;SDS011;7486;51.010;10.366;2023-05-07T04:28:02;41.23;;;23.97;;
14789;SDS011;7486;51.010;10.366;2023-05-07T04:30:48;40.13;;;23.70;;
14789;SDS011;7486;51.010;10.366;2023-05-07T04:33:33;37.03;;;23.27;;
14789;SDS011;7486;51.010;10.366;2023-05-07T04:36:19;42.87;;;24.77;;
14789;SDS011;7486;51.010;10.366;2023-05-07T04:39:15;43.23;;;24.73;;
14789;SDS011;7486;51.010;10.366;2023-05-07T04:42:03;41.77;;;23.87;;
14789;SDS011;7486;51.010;10.366;2023-05-07T04:44:52;42.97;;;23.07;;
14789;SDS011;7486;51.010;10.366;2023-05-07T04:47:40;41.23;;;24.73;;
14789;SDS011;7486;51.010;10.366;2023-05-07T04:50:25;46.60;;;25.07;;
14789;SDS011;7486;51.010;10.366;2023-05-07T04:53:15;43.43;;;24.87;;
14789;SDS011;7486;51.010;10.366;2023-05-07T04:56:01;44.27;;;25.50;;
14789;SDS011;7486;51.010;10.366;2023-05-07T04:58:56;45.73;;;25.30;;
14789;SDS011;7486;51.010;10.366;2023-05-07T05:01:42;45.00;;;26.03;;
14789;SDS011;7486;51.010;10.366;2023-05-07T05:04:27;46.73;;;26.40;;
14789;SDS011;7486;51.010;10.366;2023-05-07T05:07:13;47.93;;;25.80;;
14789;SDS011;7486;51.010;10.366;2023-05-07T05:09:59;45.43;;;26.90;;
14789;SDS011;7486;51.010;10.366;2023-05-07T05:12:45;51.67;;;27.40;;
14789;SDS011;7486;51.010;10.366;2023-05-07T05:15:30;50.63;;;28.30;;
14789;SDS011;7486;51.010;10.366;2023-05-07T05:18:18;51.53;;;27.57;;
14789;SDS011;7486;51.010;10.366;2023-05-07T05:21:04;48.97;;;27.50;;
14789;SDS011;7486;51.010;10.366;2023-05-07T05:23:50;52.07;;;29.07;;
14789;SDS011;7486;51.010;10.366;2023-05-07T05:26:39;50.17;;;28.03;;
14789;SDS011;7486;51.010;10.366;2023-05-07T05:29:24;50.90;;;28.40;;
14789;SDS011;7486;51.010;10.366;2023-05-07T05:32:10;48.33;;;27.70;;
14789;SDS011;7486;51.010;10.366;2023-05-07T05:34:56;50.10;;;26.90;;
14789;SDS011;7486;51.010;10.366;2023-05-07T05:37:42;47.33;;;26.37;;
14789;SDS011;7486;51.010;10.366;2023-05-07T05:40:27;45.83;;;26.53;;
14789;SDS011;7486;51.010;10.366;2023-05-07T05:43:13;48.23;;;27.20;;
14789;SDS011;7486;51.010;10.366;2023-05-07T05:46:00;44.67;;;25.80;;
14789;SDS011;7486;51.010;10.366;2023-05-07T05:48:47;43.47;;;26.13;;
14789;SDS011;7486;51.010;10.366;2023-05-07T05:51:33;41.97;;;25.37;;
14789;SDS011;7486;51.010;10.366;2023-05-07T05:54:19;42.80;;;24.80;;
14789;SDS011;7486;51.010;10.366;2023-05-07T05:57:05;39.77;;;23.40;;
14789;SDS011;7486;51.010;10.366;2023-05-07T05:59:51;40.60;;;25.03;;
14789;SDS011;7486;51.010;10.366;2023-05-07T06:02:36;36.33;;;22.57;;
14789;SDS011;7486;51.010;10.366;2023-05-07T06:05:24;34.20;;;22.57;;
14789;SDS011;7486;51.010;10.366;2023-05-07T06:08:12;32.80;;;21.90;;
14789;SDS011;7486;51.010;10.366;2023-05-07T06:10:58;34.03;;;22.13;;
14789;SDS011;7486;51.010;10.366;2023-05-07T06:13:44;30.50;;;20.43;;
14789;SDS011;7486;51.010;10.366;2023-05-07T06:16:29;31.73;;;21.47;;
14789;SDS011;7486;51.010;10.366;2023-05-07T06:19:14;28.33;;;19.83;;
14789;SDS011;7486;51.010;10.366;2023-05-07T06:22:00;25.03;;;18.57;;
14789;SDS011;7486;51.010;10.366;2023-05-07T06:24:47;28.50;;;18.80;;
14789;SDS011;7486;51.010;10.366;2023-05-07T06:27:32;27.93;;;19.17;;
14789;SDS011;7486;51.010;10.366;2023-05-07T06:30:18;26.87;;;18.00;;
14789;SDS011;7486;51.010;10.366;2023-05-07T06:33:04;22.03;;;17.53;;
14789;SDS011;7486;51.010;10.366;2023-05-07T06:35:50;22.73;;;17.40;;
14789;SDS011;7486;51.010;10.366;2023-05-07T06:38:35;25.33;;;17.60;;
14789;SDS011;7486;51.010;10.366;2023-05-07T06:41:20;26.23;;;18.23;;
14789;SDS011;7486;51.010;10.366;2023-05-07T06:44:05;26.83;;;18.40;;
14789;SDS011;7486;51.010;10.366;2023-05-07T06:47:01;23.20;;;17.40;;
14789;SDS011;7486;51.010;10.366;2023-05-07T06:49:46;23.87;;;16.77;;
14789;SDS011;7486;51.010;10.366;2023-05-07T06:55:45;22.33;;;16.07;;
14789;SDS011;7486;51.010;10.366;2023-05-07T06:58:32;21.20;;;14.47;;
14789;SDS011;7486;51.010;10.366;2023-05-07T07:01:18;19.47;;;13.80;;
14789;SDS011;7486;51.010;10.366;2023-05-07T07:04:03;20.43;;;14.50;;
14789;SDS011;7486;51.010;10.366;2023-05-07T07:06:51;21.57;;;15.27;;
14789;SDS011;7486;51.010;10.366;2023-05-07T07:09:37;18.67;;;13.70;;
14789;SDS011;7486;51.010;10.366;2023-05-07T07:12:24;21.07;;;14.73;;
14789;SDS011;7486;51.010;10.366;2023-05-07T07:15:10;19.43;;;14.00;;
14789;SDS011;7486;51.010;10.366;2023-05-07T07:17:56;20.57;;;13.77;;
14789;SDS011;7486;51.010;10.366;2023-05-07T07:20:42;20.50;;;14.83;;
14789;SDS011;7486;51.010;10.366;2023-05-07T07:23:27;19.70;;;14.33;;
14789;SDS011;7486;51.010;10.366;2023-05-07T07:26:13;20.30;;;13.83;;
14789;SDS011;7486;51.010;10.366;2023-05-07T07:28:58;21.13;;;13.97;;
14789;SDS011;7486;51.010;10.366;2023-05-07T07:31:44;20.40;;;14.07;;
14789;SDS011;7486;51.010;10.366;2023-05-07T07:34:30;18.23;;;13.37;;
14789;SDS011;7486;51.010;10.366;2023-05-07T07:37:15;19.17;;;13.60;;
14789;SDS011;7486;51.010;10.366;2023-05-07T07:40:01;17.87;;;12.90;;
14789;SDS011;7486;51.010;10.366;2023-05-07T07:42:46;21.13;;;13.67;;
14789;SDS011;7486;51.010;10.366;2023-05-07T07:45:32;21.87;;;14.60;;
14789;SDS011;7486;51.010;10.366;2023-05-07T07:48:19;18.67;;;13.47;;
14789;SDS011;7486;51.010;10.366;2023-05-07T07:51:05;21.07;;;14.37;;
14789;SDS011;7486;51.010;10.366;2023-05-07T07:53:50;20.10;;;14.20;;
14789;SDS011;7486;51.010;10.366;2023-05-07T07:56:36;20.67;;;14.13;;
14789;SDS011;7486;51.010;10.366;2023-05-07T07:59:23;21.37;;;14.60;;
14789;SDS011;7486;51.010;10.366;2023-05-07T08:02:09;20.83;;;14.53;;
14789;SDS011;7486;51.010;10.366;2023-05-07T08:04:54;20.93;;;14.47;;
14789;SDS011;7486;51.010;10.366;2023-05-07T08:07:40;20.70;;;14.47;;
14789;SDS011;7486;51.010;10.366;2023-05-07T08:10:26;21.23;;;14.80;;
14789;SDS011;7486;51.010;10.366;2023-05-07T08:13:18;22.13;;;15.00;;
14789;SDS011;7486;51.010;10.366;2023-05-07T08:16:04;22.77;;;15.33;;
14789;SDS011;7486;51.010;10.366;2023-05-07T08:18:51;22.63;;;15.27;;
14789;SDS011;7486;51.010;10.366;2023-05-07T08:21:38;22.13;;;14.90;;
14789;SDS011;7486;51.010;10.366;2023-05-07T08:24:25;21.63;;;15.17;;
14789;SDS011;7486;51.010;10.366;2023-05-07T08:27:11;21.03;;;15.00;;
14789;SDS011;7486;51.010;10.366;2023-05-07T08:29:59;21.63;;;14.63;;
14789;SDS011;7486;51.010;10.366;2023-05-07T08:32:45;20.63;;;14.53;;
14789;SDS011;7486;51.010;10.366;2023-05-07T08:35:30;21.30;;;14.70;;
14789;SDS011;7486;51.010;10.366;2023-05-07T08:38:15;20.50;;;14.50;;
14789;SDS011;7486;51.010;10.366;2023-05-07T08:41:01;19.70;;;14.43;;
14789;SDS011;7486;51.010;10.366;2023-05-07T08:43:49;20.17;;;14.63;;
14789;SDS011;7486;51.010;10.366;2023-05-07T08:46:36;17.20;;;13.47;;
14789;SDS011;7486;51.010;10.366;2023-05-07T08:49:22;21.17;;;13.70;;
14789;SDS011;7486;51.010;10.366;2023-05-07T08:52:08;19.50;;;14.30;;
14789;SDS011;7486;51.010;10.366;2023-05-07T08:54:56;17.80;;;13.70;;
14789;SDS011;7486;51.010;10.366;2023-05-07T08:57:42;18.70;;;13.60;;
14789;SDS011;7486;51.010;10.366;2023-05-07T09:00:28;15.27;;;13.37;;
14789;SDS011;7486;51.010;10.366;2023-05-07T09:03:15;17.00;;;13.33;;
14789;SDS011;7486;51.010;10.366;2023-05-07T09:06:04;17.20;;;13.47;;
14789;SDS011;7486;51.010;10.366;2023-05-07T09:08:51;15.97;;;12.90;;
14789;SDS011;7486;51.010;10.366;2023-05-07T09:11:38;16.07;;;12.83;;
14789;SDS011;7486;51.010;10.366;2023-05-07T09:14:24;15.87;;;12.93;;
14789;SDS011;7486;51.010;10.366;2023-05-07T09:17:09;16.57;;;12.93;;
14789;SDS011;7486;51.010;10.366;2023-05-07T09:19:54;16.17;;;13.10;;
14789;SDS011;7486;51.010;10.366;2023-05-07T09:22:41;17.67;;;13.60;;
14789;SDS011;7486;51.010;10.366;2023-05-07T09:25:30;18.20;;;13.93;;
14789;SDS011;7486;51.010;10.366;2023-05-07T09:28:25;17.60;;;13.50;;
14789;SDS011;7486;51.010;10.366;2023-05-07T09:31:11;17.00;;;14.20;;
14789;SDS011;7486;51.010;10.366;2023-05-07T09:33:57;18.50;;;14.20;;
14789;SDS011;7486;51.010;10.366;2023-05-07T09:36:46;16.80;;;12.93;;
14789;SDS011;7486;51.010;10.366;2023-05-07T09:39:42;17.03;;;13.27;;
14789;SDS011;7486;51.010;10.366;2023-05-07T09:42:34;17.20;;;13.73;;
14789;SDS011;7486;51.010;10.366;2023-05-07T09:45:25;18.13;;;13.97;;
14789;SDS011;7486;51.010;10.366;2023-05-07T09:48:11;19.60;;;14.83;;
14789;SDS011;7486;51.010;10.366;2023-05-07T09:51:02;18.63;;;15.00;;
14789;SDS011;7486;51.010;10.366;2023-05-07T09:53:51;18.57;;;14.60;;
14789;SDS011;7486;51.010;10.366;2023-05-07T09:56:38;18.00;;;14.27;;
14789;SDS011;7486;51.010;10.366;2023-05-07T09:59:24;19.73;;;14.65;;
14789;SDS011;7486;51.010;10.366;2023-05-07T10:02:15;18.77;;;14.17;;
14789;SDS011;7486;51.010;10.366;2023-05-07T10:05:06;19.33;;;14.53;;
14789;SDS011;7486;51.010;10.366;2023-05-07T10:07:52;20.57;;;14.43;;
14789;SDS011;7486;51.010;10.366;2023-05-07T10:10:39;18.60;;;15.00;;
14789;SDS011;7486;51.010;10.366;2023-05-07T10:13:28;18.83;;;14.90;;
14789;SDS011;7486;51.010;10.366;2023-05-07T10:16:16;19.23;;;14.80;;
14789;SDS011;7486;51.010;10.366;2023-05-07T10:19:06;17.53;;;14.20;;
14789;SDS011;7486;51.010;10.366;2023-05-07T10:21:55;20.57;;;15.33;;
14789;SDS011;7486;51.010;10.366;2023-05-07T10:24:46;21.37;;;15.67;;
14789;SDS011;7486;51.010;10.366;2023-05-07T10:27:37;18.93;;;15.20;;
14789;SDS011;7486;51.010;10.366;2023-05-07T10:30:48;19.07;;;14.87;;
14789;SDS011;7486;51.010;10.366;2023-05-07T10:33:48;20.60;;;15.67;;
14789;SDS011;7486;51.010;10.366;2023-05-07T10:36:38;20.33;;;16.70;;
14789;SDS011;7486;51.010;10.366;2023-05-07T10:39:24;19.23;;;15.67;;
14789;SDS011;7486;51.010;10.366;2023-05-07T10:42:10;19.85;;;15.48;;
14789;SDS011;7486;51.010;10.366;2023-05-07T10:45:13;19.73;;;15.73;;
14789;SDS011;7486;51.010;10.366;2023-05-07T10:51:19;21.53;;;15.63;;
14789;SDS011;7486;51.010;10.366;2023-05-07T10:56:58;18.33;;;15.20;;
14789;SDS011;7486;51.010;10.366;2023-05-07T11:03:26;17.33;;;14.68;;
14789;SDS011;7486;51.010;10.366;2023-05-07T11:06:17;17.48;;;14.65;;
14789;SDS011;7486;51.010;10.366;2023-05-07T11:09:14;19.27;;;15.30;;
14789;SDS011;7486;51.010;10.366;2023-05-07T11:12:09;18.37;;;15.57;;
14789;SDS011;7486;51.010;10.366;2023-05-07T11:15:05;16.67;;;14.17;;
14789;SDS011;7486;51.010;10.366;2023-05-07T11:17:54;17.02;;;14.98;;
14789;SDS011;7486;51.010;10.366;2023-05-07T11:23:56;17.13;;;13.50;;
14789;SDS011;7486;51.010;10.366;2023-05-07T11:26:50;15.33;;;13.10;;
14789;SDS011;7486;51.010;10.366;2023-05-07T11:29:38;15.30;;;13.70;;
14789;SDS011;7486;51.010;10.366;2023-05-07T11:32:28;15.33;;;13.70;;
14789;SDS011;7486;51.010;10.366;2023-05-07T11:35:16;17.15;;;13.80;;
14789;SDS011;7486;51.010;10.366;2023-05-07T11:38:04;15.50;;;13.23;;
14789;SDS011;7486;51.010;10.366;2023-05-07T11:40:56;15.90;;;14.03;;
14789;SDS011;7486;51.010;10.366;2023-05-07T11:43:58;15.00;;;13.40;;
14789;SDS011;7486;51.010;10.366;2023-05-07T11:46:44;15.10;;;12.83;;
14789;SDS011;7486;51.010;10.366;2023-05-07T11:49:30;14.73;;;13.10;;
14789;SDS011;7486;51.010;10.366;2023-05-07T11:52:16;14.00;;;12.27;;
14789;SDS011;7486;51.010;10.366;2023-05-07T11:55:03;14.40;;;12.90;;
14789;SDS011;7486;51.010;10.366;2023-05-07T11:57:48;13.75;;;12.20;;
14789;SDS011;7486;51.010;10.366;2023-05-07T12:00:33;14.68;;;13.13;;
14789;SDS011;7486;51.010;10.366;2023-05-07T12:03:21;14.30;;;12.52;;
14789;SDS011;7486;51.010;10.366;2023-05-07T12:06:07;13.43;;;11.57;;
14789;SDS011;7486;51.010;10.366;2023-05-07T12:08:52;13.45;;;11.40;;
14789;SDS011;7486;51.010;10.366;2023-05-07T12:11:38;14.43;;;12.88;;
14789;SDS011;7486;51.010;10.366;2023-05-07T12:14:26;13.32;;;11.93;;
14789;SDS011;7486;51.010;10.366;2023-05-07T12:17:13;13.93;;;12.52;;
14789;SDS011;7486;51.010;10.366;2023-05-07T12:20:00;13.43;;;12.02;;
14789;SDS011;7486;51.010;10.366;2023-05-07T12:22:46;14.18;;;12.45;;
14789;SDS011;7486;51.010;10.366;2023-05-07T12:25:36;14.80;;;12.23;;
14789;SDS011;7486;51.010;10.366;2023-05-07T12:28:22;15.10;;;13.52;;
14789;SDS011;7486;51.010;10.366;2023-05-07T12:31:08;15.32;;;13.52;;
14789;SDS011;7486;51.010;10.366;2023-05-07T12:33:53;14.63;;;12.98;;
14789;SDS011;7486;51.010;10.366;2023-05-07T12:36:39;15.05;;;13.40;;
14789;SDS011;7486;51.010;10.366;2023-05-07T12:39:25;15.13;;;13.52;;
14789;SDS011;7486;51.010;10.366;2023-05-07T12:42:14;15.20;;;12.95;;
14789;SDS011;7486;51.010;10.366;2023-05-07T12:45:08;14.88;;;13.27;;
14789;SDS011;7486;51.010;10.366;2023-05-07T12:47:55;15.50;;;12.93;;
14789;SDS011;7486;51.010;10.366;2023-05-07T12:50:41;16.05;;;13.77;;
14789;SDS011;7486;51.010;10.366;2023-05-07T12:53:26;15.05;;;13.55;;
14789;SDS011;7486;51.010;10.366;2023-05-07T12:56:15;15.27;;;13.37;;
14789;SDS011;7486;51.010;10.366;2023-05-07T12:59:01;14.27;;;12.82;;
14789;SDS011;7486;51.010;10.366;2023-05-07T13:01:46;14.15;;;12.65;;
14789;SDS011;7486;51.010;10.366;2023-05-07T13:04:32;14.52;;;12.95;;
14789;SDS011;7486;51.010;10.366;2023-05-07T13:07:18;13.45;;;12.05;;
14789;SDS011;7486;51.010;10.366;2023-05-07T13:10:04;13.63;;;12.02;;
14789;SDS011;7486;51.010;10.366;2023-05-07T13:12:50;14.00;;;12.60;;
14789;SDS011;7486;51.010;10.366;2023-05-07T13:15:35;13.05;;;11.65;;
14789;SDS011;7486;51.010;10.366;2023-05-07T13:18:20;15.68;;;12.32;;
14789;SDS011;7486;51.010;10.366;2023-05-07T13:21:06;14.30;;;12.00;;
14789;SDS011;7486;51.010;10.366;2023-05-07T13:23:51;14.20;;;12.70;;
14789;SDS011;7486;51.010;10.366;2023-05-07T13:26:37;13.77;;;11.57;;
14789;SDS011;7486;51.010;10.366;2023-05-07T13:29:22;13.73;;;12.10;;
14789;SDS011;7486;51.010;10.366;2023-05-07T13:32:07;15.27;;;12.25;;
14789;SDS011;7486;51.010;10.366;2023-05-07T13:34:53;14.05;;;12.25;;
14789;SDS011;7486;51.010;10.366;2023-05-07T13:37:38;12.73;;;11.38;;
14789;SDS011;7486;51.010;10.366;2023-05-07T13:40:23;14.25;;;12.75;;
14789;SDS011;7486;51.010;10.366;2023-05-07T13:43:09;13.45;;;12.05;;
14789;SDS011;7486;51.010;10.366;2023-05-07T13:45:54;14.10;;;11.98;;
14789;SDS011;7486;51.010;10.366;2023-05-07T13:48:40;16.60;;;11.52;;
14789;SDS011;7486;51.010;10.366;2023-05-07T13:51:25;13.25;;;11.85;;
14789;SDS011;7486;51.010;10.366;2023-05-07T13:54:11;13.43;;;12.13;;
14789;SDS011;7486;51.010;10.366;2023-05-07T13:56:56;12.38;;;11.15;;
14789;SDS011;7486;51.010;10.366;2023-05-07T13:59:42;12.98;;;11.57;;
14789;SDS011;7486;51.010;10.366;2023-05-07T14:02:27;12.20;;;11.00;;
14789;SDS011;7486;51.010;10.366;2023-05-07T14:05:12;12.68;;;11.25;;
14789;SDS011;7486;51.010;10.366;2023-05-07T14:07:59;12.43;;;11.23;;
14789;SDS011;7486;51.010;10.366;2023-05-07T14:10:45;12.10;;;10.90;;
14789;SDS011;7486;51.010;10.366;2023-05-07T14:13:30;13.85;;;11.65;;
14789;SDS011;7486;51.010;10.366;2023-05-07T14:16:16;12.32;;;10.95;;
14789;SDS011;7486;51.010;10.366;2023-05-07T14:19:01;11.30;;;10.20;;
14789;SDS011;7486;51.010;10.366;2023-05-07T14:21:47;11.52;;;10.32;;
14789;SDS011;7486;51.010;10.366;2023-05-07T14:24:32;10.77;;;9.68;;
14789;SDS011;7486;51.010;10.366;2023-05-07T14:27:23;11.15;;;10.05;;
14789;SDS011;7486;51.010;10.366;2023-05-07T14:30:08;10.48;;;9.40;;
14789;SDS011;7486;51.010;10.366;2023-05-07T14:32:54;10.60;;;9.40;;
14789;SDS011;7486;51.010;10.366;2023-05-07T14:35:39;11.60;;;10.30;;
14789;SDS011;7486;51.010;10.366;2023-05-07T14:38:25;11.00;;;9.90;;
14789;SDS011;7486;51.010;10.366;2023-05-07T14:41:11;11.25;;;10.15;;
14789;SDS011;7486;51.010;10.366;2023-05-07T14:43:56;12.30;;;11.10;;
14789;SDS011;7486;51.010;10.366;2023-05-07T14:46:42;11.38;;;10.32;;
14789;SDS011;7486;51.010;10.366;2023-05-07T14:49:27;12.07;;;10.98;;
14789;SDS011;7486;51.010;10.366;2023-05-07T14:52:13;10.88;;;9.88;;
14789;SDS011;7486;51.010;10.366;2023-05-07T14:54:59;11.82;;;10.73;;
14789;SDS011;7486;51.010;10.366;2023-05-07T14:57:44;10.55;;;9.55;;
14789;SDS011;7486;51.010;10.366;2023-05-07T15:00:29;10.52;;;9.45;;
14789;SDS011;7486;51.010;10.366;2023-05-07T15:03:15;9.95;;;9.05;;
14789;SDS011;7486;51.010;10.366;2023-05-07T15:06:02;9.60;;;8.60;;
14789;SDS011;7486;51.010;10.366;2023-05-07T15:08:48;9.43;;;8.52;;
14789;SDS011;7486;51.010;10.366;2023-05-07T15:11:33;9.73;;;8.73;;
14789;SDS011;7486;51.010;10.366;2023-05-07T15:14:22;9.60;;;8.80;;
14789;SDS011;7486;51.010;10.366;2023-05-07T15:17:07;10.88;;;8.80;;
14789;SDS011;7486;51.010;10.366;2023-05-07T15:19:53;10.40;;;9.40;;
14789;SDS011;7486;51.010;10.366;2023-05-07T15:22:38;9.88;;;8.98;;
14789;SDS011;7486;51.010;10.366;2023-05-07T15:25:23;9.93;;;9.10;;
14789;SDS011;7486;51.010;10.366;2023-05-07T15:28:09;9.82;;;8.82;;
14789;SDS011;7486;51.010;10.366;2023-05-07T15:30:54;9.32;;;8.52;;
14789;SDS011;7486;51.010;10.366;2023-05-07T15:33:40;9.90;;;9.00;;
14789;SDS011;7486;51.010;10.366;2023-05-07T15:36:25;9.05;;;8.25;;
14789;SDS011;7486;51.010;10.366;2023-05-07T15:39:11;8.95;;;8.15;;
14789;SDS011;7486;51.010;10.366;2023-05-07T15:41:56;8.38;;;7.55;;
14789;SDS011;7486;51.010;10.366;2023-05-07T15:44:42;8.13;;;7.43;;
14789;SDS011;7486;51.010;10.366;2023-05-07T15:47:27;9.13;;;8.23;;
14789;SDS011;7486;51.010;10.366;2023-05-07T15:50:13;8.52;;;7.68;;
14789;SDS011;7486;51.010;10.366;2023-05-07T15:52:58;9.32;;;8.48;;
14789;SDS011;7486;51.010;10.366;2023-05-07T15:55:43;9.07;;;8.18;;
14789;SDS011;7486;51.010;10.366;2023-05-07T15:58:30;8.93;;;8.15;;
14789;SDS011;7486;51.010;10.366;2023-05-07T16:01:16;8.63;;;7.88;;
14789;SDS011;7486;51.010;10.366;2023-05-07T16:04:01;8.90;;;8.02;;
14789;SDS011;7486;51.010;10.366;2023-05-07T16:06:46;8.77;;;7.97;;
14789;SDS011;7486;51.010;10.366;2023-05-07T16:09:31;9.13;;;8.32;;
14789;SDS011;7486;51.010;10.366;2023-05-07T16:12:17;9.50;;;8.50;;
14789;SDS011;7486;51.010;10.366;2023-05-07T16:15:02;8.70;;;7.90;;
14789;SDS011;7486;51.010;10.366;2023-05-07T16:17:48;8.52;;;7.82;;
14789;SDS011;7486;51.010;10.366;2023-05-07T16:20:33;8.57;;;7.85;;
14789;SDS011;7486;51.010;10.366;2023-05-07T16:23:18;8.80;;;8.00;;
14789;SDS011;7486;51.010;10.366;2023-05-07T16:26:03;8.40;;;7.65;;
14789;SDS011;7486;51.010;10.366;2023-05-07T16:28:49;7.60;;;6.97;;
14789;SDS011;7486;51.010;10.366;2023-05-07T16:31:34;7.10;;;6.50;;
14789;SDS011;7486;51.010;10.366;2023-05-07T16:34:19;7.07;;;6.47;;